Time;durP1;ratioP1;P1;durP2;ratioP2;P2;SDS_P1;SDS_P2;PMS_P1;PMS_P2;Temp;Humidity;BMP_temperature;BMP_pressure;BME280_temperature;BME280_humidity;BME280_pressure;Samples;Min_cycle;Max_cycle;Signal;HPM_P1;HPM_P2
2023/07/22 00:02:17;;;;;;;12.40;8.60;;;;;;;;;;5034001;28;20834;-81
2023/07/22 00:04:43;;;;;;;14.57;10.90;;;;;;;;;;5023668;28;21020;-80
2023/07/22 00:07:09;;;;;;;15.10;8.17;;;;;;;;;;5029931;28;20471;-81
2023/07/22 00:09:38;;;;;;;14.57;9.83;;;;;;;;;;5029555;28;20448;-81
2023/07/22 00:12:07;;;;;;;11.73;8.97;;;;;;;;;;5019805;28;20565;-80
2023/07/22 00:14:33;;;;;;;12.80;9.47;;;;;;;;;;5031211;28;20416;-80
2023/07/22 00:16:59;;;;;;;10.63;9.17;;;;;;;;;;5027796;28;20481;-80
2023/07/22 00:19:26;;;;;;;12.10;7.93;;;;;;;;;;5033564;28;20468;-80
2023/07/22 00:21:52;;;;;;;16.57;9.57;;;;;;;;;;5025035;28;20465;-81
2023/07/22 00:24:19;;;;;;;14.20;9.30;;;;;;;;;;5028805;28;20445;-80
2023/07/22 00:26:45;;;;;;;11.73;8.00;;;;;;;;;;5026513;28;20465;-81
2023/07/22 00:29:13;;;;;;;13.10;8.17;;;;;;;;;;5033217;28;20481;-80
2023/07/22 00:31:41;;;;;;;10.70;7.30;;;;;;;;;;5030743;28;20468;-80
2023/07/22 00:34:09;;;;;;;13.07;8.77;;;;;;;;;;5030704;28;20794;-80
2023/07/22 00:36:35;;;;;;;13.30;7.67;;;;;;;;;;5023811;28;20465;-80
2023/07/22 00:39:02;;;;;;;10.77;7.73;;;;;;;;;;5023841;28;20501;-80
2023/07/22 00:41:28;;;;;;;14.53;7.60;;;;;;;;;;5029192;28;20469;-81
2023/07/22 00:43:55;;;;;;;10.63;7.20;;;;;;;;;;5033460;28;20465;-80
2023/07/22 00:46:22;;;;;;;10.43;7.50;;;;;;;;;;5032759;28;20479;-81
2023/07/22 00:48:49;;;;;;;11.50;8.07;;;;;;;;;;5026261;28;20469;-81
2023/07/22 00:51:15;;;;;;;13.27;7.63;;;;;;;;;;5026452;28;20476;-80
2023/07/22 00:53:42;;;;;;;13.00;7.80;;;;;;;;;;5025136;28;20945;-80
2023/07/22 00:56:08;;;;;;;11.87;7.80;;;;;;;;;;5030887;28;20511;-81
2023/07/22 00:58:35;;;;;;;18.20;8.60;;;;;;;;;;5023549;28;20481;-80
2023/07/22 01:01:02;;;;;;;16.90;8.50;;;;;;;;;;5037095;28;20472;-80
2023/07/22 01:03:31;;;;;;;12.17;7.13;;;;;;;;;;5045648;28;20471;-80
2023/07/22 01:06:00;;;;;;;13.20;7.63;;;;;;;;;;5044614;28;20559;-80
2023/07/22 01:08:26;;;;;;;18.13;7.90;;;;;;;;;;5025197;28;20481;-81
2023/07/22 01:10:54;;;;;;;12.23;8.03;;;;;;;;;;5029580;28;20475;-80
2023/07/22 01:13:21;;;;;;;18.67;7.70;;;;;;;;;;5025755;28;20511;-80
2023/07/22 01:15:48;;;;;;;14.40;9.17;;;;;;;;;;5030617;28;20468;-81
2023/07/22 01:18:15;;;;;;;12.73;7.87;;;;;;;;;;5034166;28;20465;-81
2023/07/22 01:20:43;;;;;;;10.77;7.40;;;;;;;;;;5032817;28;20871;-80
2023/07/22 01:23:11;;;;;;;10.00;6.50;;;;;;;;;;5035456;28;20441;-80
2023/07/22 01:25:38;;;;;;;16.27;8.37;;;;;;;;;;5014970;28;20536;-80
2023/07/22 01:28:10;;;;;;;11.97;8.23;;;;;;;;;;5029479;28;20444;-80
2023/07/22 01:30:36;;;;;;;13.80;9.40;;;;;;;;;;5030404;28;20487;-81
2023/07/22 01:33:03;;;;;;;13.00;8.93;;;;;;;;;;5036220;28;20435;-80
2023/07/22 01:35:29;;;;;;;14.93;8.30;;;;;;;;;;5035068;28;20481;-81
2023/07/22 01:37:55;;;;;;;15.57;8.17;;;;;;;;;;5032978;28;20470;-80
2023/07/22 01:40:25;;;;;;;12.97;7.50;;;;;;;;;;5031067;28;20455;-81
2023/07/22 01:42:51;;;;;;;16.60;8.43;;;;;;;;;;5028329;28;20939;-80
2023/07/22 01:45:18;;;;;;;12.13;7.33;;;;;;;;;;5030719;28;20487;-80
2023/07/22 01:47:44;;;;;;;17.70;8.23;;;;;;;;;;5030633;28;20446;-80
2023/07/22 01:50:12;;;;;;;17.43;9.13;;;;;;;;;;5035415;28;20993;-81
2023/07/22 01:52:39;;;;;;;14.03;8.73;;;;;;;;;;5030503;28;20454;-80
2023/07/22 01:55:06;;;;;;;11.80;8.53;;;;;;;;;;5024866;28;20453;-79
2023/07/22 01:57:34;;;;;;;18.40;8.77;;;;;;;;;;5035063;28;20509;-80
2023/07/22 02:00:00;;;;;;;14.80;8.03;;;;;;;;;;5032558;28;20468;-80
2023/07/22 02:02:27;;;;;;;12.43;8.20;;;;;;;;;;5027271;28;20986;-80
2023/07/22 02:04:53;;;;;;;15.43;8.37;;;;;;;;;;5032156;28;20445;-80
2023/07/22 02:07:20;;;;;;;11.50;7.23;;;;;;;;;;5035067;28;20813;-79
2023/07/22 02:09:46;;;;;;;15.90;9.57;;;;;;;;;;5033699;28;20460;-80
2023/07/22 02:12:12;;;;;;;17.80;8.40;;;;;;;;;;5031974;28;20473;-80
2023/07/22 02:14:40;;;;;;;13.73;9.03;;;;;;;;;;5022281;28;20445;-80
2023/07/22 02:17:09;;;;;;;13.70;9.43;;;;;;;;;;5033500;28;20488;-80
2023/07/22 02:19:35;;;;;;;11.80;8.30;;;;;;;;;;5027616;28;20453;-80
2023/07/22 02:22:01;;;;;;;10.30;7.77;;;;;;;;;;5033627;28;20898;-79
2023/07/22 02:24:28;;;;;;;16.20;8.47;;;;;;;;;;5030595;28;20460;-80
2023/07/22 02:26:55;;;;;;;14.17;8.50;;;;;;;;;;5028610;28;20484;-80
2023/07/22 02:29:21;;;;;;;16.40;7.90;;;;;;;;;;5028184;28;20515;-80
2023/07/22 02:31:49;;;;;;;13.83;7.80;;;;;;;;;;5033609;28;20483;-80
2023/07/22 02:34:16;;;;;;;13.07;7.37;;;;;;;;;;5031847;28;20453;-80
2023/07/22 02:36:42;;;;;;;12.80;8.87;;;;;;;;;;5032572;28;20467;-80
2023/07/22 02:39:09;;;;;;;14.60;8.47;;;;;;;;;;5025235;28;20495;-80
2023/07/22 02:41:37;;;;;;;19.50;11.10;;;;;;;;;;5031168;28;20481;-80
2023/07/22 02:44:04;;;;;;;12.77;7.47;;;;;;;;;;5033834;28;20687;-80
2023/07/22 02:46:31;;;;;;;13.03;7.37;;;;;;;;;;5032288;28;20477;-80
2023/07/22 02:48:59;;;;;;;12.33;7.53;;;;;;;;;;5030168;28;20465;-80
2023/07/22 02:51:25;;;;;;;14.60;7.67;;;;;;;;;;5026192;28;20472;-80
2023/07/22 02:53:52;;;;;;;16.93;8.83;;;;;;;;;;5028934;28;20965;-80
2023/07/22 02:56:18;;;;;;;13.27;7.97;;;;;;;;;;5030168;28;20465;-80
2023/07/22 02:58:44;;;;;;;13.00;7.50;;;;;;;;;;5034209;28;20477;-80
2023/07/22 03:01:11;;;;;;;12.80;8.50;;;;;;;;;;5032323;28;20472;-80
2023/07/22 03:03:37;;;;;;;15.60;7.73;;;;;;;;;;5033579;28;20544;-80
2023/07/22 03:06:09;;;;;;;17.50;9.73;;;;;;;;;;5031506;28;20819;-80
2023/07/22 03:08:36;;;;;;;14.90;8.80;;;;;;;;;;5033999;28;20469;-80
2023/07/22 03:11:03;;;;;;;12.83;8.37;;;;;;;;;;5027481;28;20480;-80
2023/07/22 03:13:30;;;;;;;19.13;10.23;;;;;;;;;;5034316;28;20449;-79
2023/07/22 03:15:56;;;;;;;17.23;9.07;;;;;;;;;;5027231;28;20472;-80
2023/07/22 03:18:24;;;;;;;11.30;8.40;;;;;;;;;;5029687;28;20838;-80
2023/07/22 03:20:51;;;;;;;14.97;8.30;;;;;;;;;;5019323;28;21009;-80
2023/07/22 03:23:19;;;;;;;21.40;7.70;;;;;;;;;;5032964;28;20953;-80
2023/07/22 03:25:45;;;;;;;16.27;7.97;;;;;;;;;;5027897;28;20476;-80
2023/07/22 03:28:13;;;;;;;12.90;8.03;;;;;;;;;;5022167;28;20883;-80
2023/07/22 03:30:39;;;;;;;14.53;9.33;;;;;;;;;;5020709;28;20500;-80
2023/07/22 03:33:05;;;;;;;15.27;8.00;;;;;;;;;;5019631;28;20453;-80
2023/07/22 03:35:32;;;;;;;17.20;8.30;;;;;;;;;;5033050;28;20471;-80
2023/07/22 03:37:58;;;;;;;17.67;8.57;;;;;;;;;;5033842;28;20475;-80
2023/07/22 03:40:29;;;;;;;12.93;7.03;;;;;;;;;;5027613;28;20517;-80
2023/07/22 03:42:57;;;;;;;13.83;8.90;;;;;;;;;;5032878;28;20461;-80
2023/07/22 03:45:24;;;;;;;15.50;8.90;;;;;;;;;;5030251;28;20540;-80
2023/07/22 03:47:51;;;;;;;22.33;10.50;;;;;;;;;;5029255;28;20472;-80
2023/07/22 03:50:17;;;;;;;12.83;7.83;;;;;;;;;;5029138;28;20947;-80
2023/07/22 03:52:44;;;;;;;16.43;8.83;;;;;;;;;;5030416;28;20451;-80
2023/07/22 03:55:10;;;;;;;13.80;9.20;;;;;;;;;;5026599;28;20932;-80
2023/07/22 03:57:38;;;;;;;19.23;9.33;;;;;;;;;;5031217;28;20492;-80
2023/07/22 04:00:05;;;;;;;14.10;7.53;;;;;;;;;;5032981;28;20449;-80
2023/07/22 04:02:31;;;;;;;14.90;8.50;;;;;;;;;;5033003;28;20469;-80
2023/07/22 04:04:58;;;;;;;12.27;7.53;;;;;;;;;;5031133;28;20461;-80
2023/07/22 04:07:24;;;;;;;12.70;7.97;;;;;;;;;;5030665;28;20480;-80
2023/07/22 04:09:51;;;;;;;17.43;9.30;;;;;;;;;;5033200;28;20452;-80
2023/07/22 04:12:17;;;;;;;18.63;9.03;;;;;;;;;;5028626;28;20692;-80
2023/07/22 04:14:45;;;;;;;12.67;8.40;;;;;;;;;;5031818;28;20445;-80
2023/07/22 04:17:11;;;;;;;17.17;8.40;;;;;;;;;;5025833;28;20469;-80
2023/07/22 04:19:38;;;;;;;21.07;9.23;;;;;;;;;;5031752;28;20445;-80
2023/07/22 04:22:06;;;;;;;16.30;8.30;;;;;;;;;;5030284;28;20476;-80
2023/07/22 04:24:32;;;;;;;20.47;9.10;;;;;;;;;;5032300;28;20472;-79
2023/07/22 04:26:59;;;;;;;15.93;8.10;;;;;;;;;;5028850;28;20488;-80
2023/07/22 04:29:25;;;;;;;12.17;7.73;;;;;;;;;;5033359;28;20457;-80
2023/07/22 04:31:57;;;;;;;17.17;8.67;;;;;;;;;;5040122;28;20471;-80
2023/07/22 04:34:25;;;;;;;16.50;8.77;;;;;;;;;;5050506;28;20463;-80
2023/07/22 04:36:51;;;;;;;12.33;7.03;;;;;;;;;;5051114;28;20491;-80
2023/07/22 04:39:18;;;;;;;12.63;8.53;;;;;;;;;;5049984;28;20468;-80
2023/07/22 04:41:46;;;;;;;18.20;9.20;;;;;;;;;;5049100;28;20467;-80
2023/07/22 04:44:12;;;;;;;14.03;8.03;;;;;;;;;;5049814;28;20952;-80
2023/07/22 04:46:38;;;;;;;12.50;7.07;;;;;;;;;;5052294;28;20468;-80
2023/07/22 04:49:06;;;;;;;14.30;7.97;;;;;;;;;;5052258;28;20857;-80
2023/07/22 04:51:33;;;;;;;14.57;7.57;;;;;;;;;;5050536;28;20959;-80
2023/07/22 04:53:59;;;;;;;17.07;7.73;;;;;;;;;;5048695;28;20506;-79
2023/07/22 04:56:25;;;;;;;13.07;8.13;;;;;;;;;;5051179;28;20480;-80
2023/07/22 04:58:51;;;;;;;13.30;7.60;;;;;;;;;;5051052;28;20467;-80
2023/07/22 05:01:18;;;;;;;16.73;8.83;;;;;;;;;;5052093;28;20475;-80
2023/07/22 05:03:44;;;;;;;14.80;8.87;;;;;;;;;;5046563;28;20931;-80
2023/07/22 05:06:12;;;;;;;19.53;9.33;;;;;;;;;;5041955;28;20472;-80
2023/07/22 05:08:38;;;;;;;15.10;9.60;;;;;;;;;;5049877;28;20463;-80
2023/07/22 05:11:05;;;;;;;20.03;8.90;;;;;;;;;;5046976;28;20518;-80
2023/07/22 05:13:31;;;;;;;15.73;9.60;;;;;;;;;;5052786;28;20447;-80
2023/07/22 05:15:58;;;;;;;18.67;8.87;;;;;;;;;;5052148;28;20475;-80
2023/07/22 05:18:24;;;;;;;23.33;11.80;;;;;;;;;;5045148;28;20464;-80
2023/07/22 05:20:53;;;;;;;18.97;10.70;;;;;;;;;;5044453;28;20476;-80
2023/07/22 05:23:21;;;;;;;22.33;10.57;;;;;;;;;;5048633;28;20449;-80
2023/07/22 05:25:51;;;;;;;22.27;11.00;;;;;;;;;;5042197;28;20487;-80
2023/07/22 05:28:17;;;;;;;37.17;11.17;;;;;;;;;;5051318;28;20471;-80
2023/07/22 05:30:44;;;;;;;16.47;9.60;;;;;;;;;;5046912;28;20463;-80
2023/07/22 05:33:10;;;;;;;13.80;8.57;;;;;;;;;;5040187;28;20830;-80
2023/07/22 05:35:36;;;;;;;24.57;9.43;;;;;;;;;;5051514;28;20471;-80
2023/07/22 05:38:04;;;;;;;17.47;9.00;;;;;;;;;;5052179;28;20471;-80
2023/07/22 05:40:32;;;;;;;15.07;7.53;;;;;;;;;;5038309;28;20461;-80
2023/07/22 05:42:59;;;;;;;13.27;8.70;;;;;;;;;;5029846;28;20464;-80
2023/07/22 05:45:25;;;;;;;18.97;9.00;;;;;;;;;;5029778;28;20452;-80
2023/07/22 05:47:51;;;;;;;21.90;10.10;;;;;;;;;;5031772;28;20484;-80
2023/07/22 05:50:19;;;;;;;21.43;10.60;;;;;;;;;;5035586;28;20412;-80
2023/07/22 05:52:47;;;;;;;14.60;8.40;;;;;;;;;;5033860;28;20452;-80
2023/07/22 05:55:14;;;;;;;18.03;8.87;;;;;;;;;;5030935;28;20888;-80
2023/07/22 05:57:42;;;;;;;18.03;8.80;;;;;;;;;;5035278;28;20454;-79
2023/07/22 06:00:09;;;;;;;12.13;8.27;;;;;;;;;;5035829;28;20449;-79
2023/07/22 06:02:35;;;;;;;16.87;8.30;;;;;;;;;;5032692;28;20527;-80
2023/07/22 06:05:03;;;;;;;12.90;7.17;;;;;;;;;;5031426;28;20461;-80
2023/07/22 06:07:30;;;;;;;13.17;6.97;;;;;;;;;;5029234;28;20572;-80
2023/07/22 06:09:56;;;;;;;13.53;6.83;;;;;;;;;;5035671;28;20822;-79
2023/07/22 06:12:22;;;;;;;10.93;6.63;;;;;;;;;;5025968;28;21009;-80
2023/07/22 06:14:50;;;;;;;8.87;5.77;;;;;;;;;;5027021;28;20452;-79
2023/07/22 06:17:17;;;;;;;10.70;6.70;;;;;;;;;;5043931;28;20504;-80
2023/07/22 06:19:43;;;;;;;12.97;6.73;;;;;;;;;;5055033;28;20422;-80
2023/07/22 06:22:09;;;;;;;14.17;6.23;;;;;;;;;;5029954;28;20468;-80
2023/07/22 06:24:36;;;;;;;12.57;7.70;;;;;;;;;;5026962;28;20944;-80
2023/07/22 06:27:02;;;;;;;20.60;8.03;;;;;;;;;;5016831;28;20456;-80
2023/07/22 06:29:28;;;;;;;18.00;8.70;;;;;;;;;;5032385;28;20472;-80
2023/07/22 06:31:56;;;;;;;11.33;6.33;;;;;;;;;;5026398;28;20487;-80
2023/07/22 06:34:23;;;;;;;10.10;6.17;;;;;;;;;;5026899;28;20456;-80
2023/07/22 06:36:50;;;;;;;10.70;7.07;;;;;;;;;;5032973;28;20482;-80
2023/07/22 06:39:16;;;;;;;11.07;5.60;;;;;;;;;;5020935;28;20444;-80
2023/07/22 06:41:43;;;;;;;13.40;6.77;;;;;;;;;;5019993;28;20447;-80
2023/07/22 06:44:09;;;;;;;7.73;5.27;;;;;;;;;;5030965;28;20421;-80
2023/07/22 06:46:36;;;;;;;7.97;5.77;;;;;;;;;;5032787;28;20462;-80
2023/07/22 06:49:04;;;;;;;14.27;6.60;;;;;;;;;;5019037;28;20452;-80
2023/07/22 06:51:30;;;;;;;14.10;6.70;;;;;;;;;;5034145;28;20476;-80
2023/07/22 06:53:56;;;;;;;9.10;5.87;;;;;;;;;;5028329;28;20832;-80
2023/07/22 06:56:23;;;;;;;11.13;6.60;;;;;;;;;;5017675;28;20465;-80
2023/07/22 06:58:51;;;;;;;10.30;5.10;;;;;;;;;;5034224;28;20479;-80
2023/07/22 07:01:17;;;;;;;10.77;6.20;;;;;;;;;;5022960;28;20468;-80
2023/07/22 07:03:43;;;;;;;11.33;4.70;;;;;;;;;;5032301;28;20448;-80
2023/07/22 07:06:11;;;;;;;7.30;4.47;;;;;;;;;;5026088;28;20447;-80
2023/07/22 07:08:38;;;;;;;10.53;5.63;;;;;;;;;;5028708;28;20463;-80
2023/07/22 07:11:04;;;;;;;14.60;4.50;;;;;;;;;;5028452;28;20476;-80
2023/07/22 07:13:31;;;;;;;6.83;4.20;;;;;;;;;;5026896;28;20456;-80
2023/07/22 07:15:57;;;;;;;10.10;4.70;;;;;;;;;;5032103;28;20465;-80
2023/07/22 07:18:23;;;;;;;7.13;4.40;;;;;;;;;;5025937;28;20442;-80
2023/07/22 07:20:50;;;;;;;6.07;4.37;;;;;;;;;;5032957;28;20820;-80
2023/07/22 07:23:19;;;;;;;6.23;4.07;;;;;;;;;;5019212;28;20431;-82
2023/07/22 07:25:45;;;;;;;6.10;3.80;;;;;;;;;;5026536;28;20465;-79
2023/07/22 07:28:14;;;;;;;6.37;4.30;;;;;;;;;;5020128;28;20489;-80
2023/07/22 07:30:40;;;;;;;6.33;3.47;;;;;;;;;;5023733;28;20468;-79
2023/07/22 07:33:06;;;;;;;4.60;3.00;;;;;;;;;;5034174;28;20463;-79
2023/07/22 07:35:33;;;;;;;7.10;4.07;;;;;;;;;;5033446;28;20443;-80
2023/07/22 07:37:59;;;;;;;5.73;3.43;;;;;;;;;;5032226;28;20476;-79
2023/07/22 07:40:27;;;;;;;4.33;3.20;;;;;;;;;;5027817;28;20445;-78
2023/07/22 07:42:54;;;;;;;6.27;3.40;;;;;;;;;;5043068;28;20455;-79
2023/07/22 07:45:20;;;;;;;10.47;3.37;;;;;;;;;;5045947;28;20455;-79
2023/07/22 07:47:47;;;;;;;6.93;3.70;;;;;;;;;;5033247;28;20466;-81
2023/07/22 07:50:13;;;;;;;5.60;4.00;;;;;;;;;;5028903;28;20449;-79
2023/07/22 07:52:39;;;;;;;11.40;4.93;;;;;;;;;;5027177;28;20445;-78
2023/07/22 07:55:06;;;;;;;5.60;3.97;;;;;;;;;;5022585;28;20457;-79
2023/07/22 07:57:34;;;;;;;7.13;3.50;;;;;;;;;;5018630;28;21029;-81
2023/07/22 08:00:00;;;;;;;10.77;3.47;;;;;;;;;;5029791;28;20454;-79
2023/07/22 08:02:27;;;;;;;11.73;5.70;;;;;;;;;;5027649;28;20481;-80
2023/07/22 08:04:53;;;;;;;5.40;3.43;;;;;;;;;;5025881;28;20492;-79
2023/07/22 08:07:19;;;;;;;8.20;3.63;;;;;;;;;;5029542;28;20915;-80
2023/07/22 08:09:48;;;;;;;5.40;2.90;;;;;;;;;;5024859;28;20467;-80
2023/07/22 08:12:15;;;;;;;7.50;4.07;;;;;;;;;;5045458;28;20494;-80
2023/07/22 08:14:43;;;;;;;5.73;3.30;;;;;;;;;;5052249;28;20455;-80
2023/07/22 08:17:09;;;;;;;4.80;3.27;;;;;;;;;;5052473;28;20464;-80
2023/07/22 08:19:36;;;;;;;4.17;3.27;;;;;;;;;;5043746;28;20445;-79
2023/07/22 08:22:02;;;;;;;4.47;2.67;;;;;;;;;;5026533;28;20444;-80
2023/07/22 08:24:29;;;;;;;6.87;3.70;;;;;;;;;;5018955;28;20452;-79
2023/07/22 08:26:55;;;;;;;6.93;3.67;;;;;;;;;;5032713;28;20483;-80
2023/07/22 08:29:21;;;;;;;6.10;3.73;;;;;;;;;;5031171;28;20468;-80
2023/07/22 08:31:49;;;;;;;8.23;3.87;;;;;;;;;;5046474;28;20479;-80
2023/07/22 08:34:15;;;;;;;6.30;4.40;;;;;;;;;;5045432;28;20440;-80
2023/07/22 08:36:42;;;;;;;6.00;4.50;;;;;;;;;;5040723;28;20482;-80
2023/07/22 08:39:08;;;;;;;7.77;5.00;;;;;;;;;;5045994;28;20478;-79
2023/07/22 08:41:35;;;;;;;9.47;5.37;;;;;;;;;;5030947;28;20474;-79
2023/07/22 08:44:02;;;;;;;5.73;4.00;;;;;;;;;;5029698;28;20495;-79
2023/07/22 08:46:29;;;;;;;6.17;3.90;;;;;;;;;;5028526;28;20485;-80
2023/07/22 08:48:57;;;;;;;6.60;4.63;;;;;;;;;;5032127;28;20508;-81
2023/07/22 08:51:24;;;;;;;8.87;4.63;;;;;;;;;;5031962;28;20472;-80
2023/07/22 08:53:51;;;;;;;7.53;5.23;;;;;;;;;;5033078;28;20449;-80
2023/07/22 08:56:17;;;;;;;7.80;4.73;;;;;;;;;;5032419;28;20480;-80
2023/07/22 08:58:44;;;;;;;7.50;5.10;;;;;;;;;;5025445;28;20473;-81
2023/07/22 09:01:11;;;;;;;6.00;4.37;;;;;;;;;;5024684;28;20476;-80
2023/07/22 09:03:39;;;;;;;8.47;5.27;;;;;;;;;;5032228;28;20457;-81
2023/07/22 09:06:07;;;;;;;12.67;6.03;;;;;;;;;;5024235;28;20469;-81
2023/07/22 09:08:34;;;;;;;11.30;7.17;;;;;;;;;;5032192;28;20489;-80
2023/07/22 09:11:00;;;;;;;11.57;6.67;;;;;;;;;;5021999;28;21009;-81
2023/07/22 09:13:27;;;;;;;10.40;6.87;;;;;;;;;;5021006;28;20813;-81
2023/07/22 09:15:54;;;;;;;11.33;6.17;;;;;;;;;;5031759;28;20993;-80
2023/07/22 09:18:21;;;;;;;12.47;6.93;;;;;;;;;;5051427;28;20539;-80
2023/07/22 09:20:49;;;;;;;8.60;5.60;;;;;;;;;;5052681;28;20463;-81
2023/07/22 09:23:16;;;;;;;9.53;6.50;;;;;;;;;;5055713;28;20486;-81
2023/07/22 09:25:44;;;;;;;9.20;6.83;;;;;;;;;;5057470;28;20474;-78
2023/07/22 09:28:10;;;;;;;9.57;6.47;;;;;;;;;;5055634;28;20860;-78
2023/07/22 09:30:38;;;;;;;20.13;8.20;;;;;;;;;;5041922;28;20516;-78
2023/07/22 09:33:05;;;;;;;9.60;6.43;;;;;;;;;;5053241;28;20452;-78
2023/07/22 09:35:33;;;;;;;21.27;8.03;;;;;;;;;;5050227;28;20464;-78
2023/07/22 09:37:59;;;;;;;10.40;7.27;;;;;;;;;;5046340;28;20464;-78
2023/07/22 09:40:28;;;;;;;13.97;6.70;;;;;;;;;;5049503;28;20448;-79
2023/07/22 09:42:55;;;;;;;12.23;9.10;;;;;;;;;;5047901;28;20519;-79
2023/07/22 09:45:22;;;;;;;10.60;8.17;;;;;;;;;;5044352;28;20472;-78
2023/07/22 09:47:50;;;;;;;10.97;7.30;;;;;;;;;;5048995;28;20496;-78
2023/07/22 09:50:16;;;;;;;14.00;8.70;;;;;;;;;;5052432;28;20449;-79
2023/07/22 09:52:47;;;;;;;13.53;8.27;;;;;;;;;;5030118;28;21013;-78
2023/07/22 09:55:15;;;;;;;12.00;7.70;;;;;;;;;;5025160;28;20492;-79
2023/07/22 09:57:44;;;;;;;11.30;8.27;;;;;;;;;;5033099;28;20461;-78
2023/07/22 10:00:12;;;;;;;12.10;8.80;;;;;;;;;;5028012;28;20445;-78
2023/07/22 10:02:38;;;;;;;14.27;10.00;;;;;;;;;;5032383;28;20496;-78
2023/07/22 10:05:05;;;;;;;10.87;7.90;;;;;;;;;;5029433;28;20864;-78
2023/07/22 10:07:34;;;;;;;12.23;8.87;;;;;;;;;;5031615;28;20519;-78
2023/07/22 10:10:00;;;;;;;64.03;27.73;;;;;;;;;;5035481;28;20455;-78
2023/07/22 10:12:27;;;;;;;12.60;10.40;;;;;;;;;;5026084;28;20472;-78
2023/07/22 10:14:55;;;;;;;39.50;18.80;;;;;;;;;;5025985;28;20449;-78
2023/07/22 10:17:22;;;;;;;44.03;20.30;;;;;;;;;;5021726;28;21030;-78
2023/07/22 10:19:50;;;;;;;11.00;9.23;;;;;;;;;;5033810;28;20456;-79
2023/07/22 10:22:16;;;;;;;11.77;8.20;;;;;;;;;;5029926;28;20512;-78
2023/07/22 10:24:44;;;;;;;91.90;35.30;;;;;;;;;;5031465;28;20445;-78
2023/07/22 10:27:11;;;;;;;14.40;10.73;;;;;;;;;;5032640;28;20476;-78
2023/07/22 10:29:39;;;;;;;10.87;8.30;;;;;;;;;;5024312;28;20490;-80
2023/07/22 10:32:07;;;;;;;56.80;25.77;;;;;;;;;;5025098;28;20473;-78
2023/07/22 10:34:34;;;;;;;31.00;14.20;;;;;;;;;;5035619;28;20461;-79
2023/07/22 10:37:00;;;;;;;53.93;20.20;;;;;;;;;;5034317;28;20484;-80
2023/07/22 10:39:27;;;;;;;15.20;8.53;;;;;;;;;;5032719;28;20527;-80
2023/07/22 10:41:59;;;;;;;13.17;6.90;;;;;;;;;;5027004;28;20473;-78
2023/07/22 10:44:26;;;;;;;41.43;20.07;;;;;;;;;;5033221;28;20834;-79
2023/07/22 10:46:57;;;;;;;10.33;7.50;;;;;;;;;;5029902;28;21015;-78
2023/07/22 10:49:25;;;;;;;10.90;8.13;;;;;;;;;;5032712;28;20491;-78
2023/07/22 10:51:55;;;;;;;54.40;25.53;;;;;;;;;;5028157;28;20488;-78
2023/07/22 10:54:32;;;;;;;11.60;8.00;;;;;;;;;;5022070;28;20445;-78
2023/07/22 10:57:03;;;;;;;16.93;9.83;;;;;;;;;;5024119;28;20658;-80
2023/07/22 10:59:33;;;;;;;48.97;20.97;;;;;;;;;;5029635;28;20810;-79
2023/07/22 11:01:59;;;;;;;64.90;23.73;;;;;;;;;;5026060;28;20470;-78
2023/07/22 11:04:31;;;;;;;27.00;12.63;;;;;;;;;;5033252;28;20469;-78
2023/07/22 11:06:58;;;;;;;68.90;28.63;;;;;;;;;;5025508;28;20474;-78
2023/07/22 11:09:38;;;;;;;33.40;14.43;;;;;;;;;;5031176;28;20484;-78
2023/07/22 11:12:06;;;;;;;36.13;17.30;;;;;;;;;;5026924;28;20477;-78
2023/07/22 11:14:33;;;;;;;39.10;20.07;;;;;;;;;;5033507;28;20482;-78
2023/07/22 11:17:00;;;;;;;29.97;18.40;;;;;;;;;;5022655;28;20476;-78
2023/07/22 11:19:28;;;;;;;21.40;11.63;;;;;;;;;;5033511;28;20914;-78
2023/07/22 11:21:55;;;;;;;12.27;9.03;;;;;;;;;;5033492;28;20481;-79
2023/07/22 11:24:22;;;;;;;10.47;7.13;;;;;;;;;;5026708;28;20832;-79
2023/07/22 11:26:49;;;;;;;21.87;11.20;;;;;;;;;;5031155;28;20480;-79
2023/07/22 11:29:16;;;;;;;166.93;60.30;;;;;;;;;;5033631;28;20575;-79
2023/07/22 11:31:45;;;;;;;45.20;21.80;;;;;;;;;;5027204;28;20488;-78
2023/07/22 11:34:11;;;;;;;44.13;20.50;;;;;;;;;;5032035;28;20826;-78
2023/07/22 11:36:41;;;;;;;57.87;24.40;;;;;;;;;;5029000;28;20466;-79
2023/07/22 11:39:08;;;;;;;26.57;15.17;;;;;;;;;;5029785;28;20473;-78
2023/07/22 11:41:34;;;;;;;12.10;8.80;;;;;;;;;;5022889;28;20479;-79
2023/07/22 11:44:01;;;;;;;10.93;7.80;;;;;;;;;;5044472;28;20452;-79
2023/07/22 11:46:28;;;;;;;10.60;6.43;;;;;;;;;;5027606;28;20995;-79
2023/07/22 11:48:54;;;;;;;8.20;6.13;;;;;;;;;;5033477;28;20492;-79
2023/07/22 11:51:21;;;;;;;9.83;6.60;;;;;;;;;;5026683;28;20484;-79
2023/07/22 11:53:50;;;;;;;8.27;6.37;;;;;;;;;;5028844;28;20468;-79
2023/07/22 11:56:20;;;;;;;12.80;5.80;;;;;;;;;;5023616;28;20506;-78
2023/07/22 11:58:49;;;;;;;11.43;7.60;;;;;;;;;;5025686;28;20985;-79
2023/07/22 12:01:16;;;;;;;67.67;28.33;;;;;;;;;;5027197;28;20477;-79
2023/07/22 12:03:42;;;;;;;10.57;7.97;;;;;;;;;;5027530;28;20445;-79
2023/07/22 12:06:09;;;;;;;10.90;7.73;;;;;;;;;;5033005;28;20894;-79
2023/07/22 12:08:37;;;;;;;12.73;7.30;;;;;;;;;;5030951;28;20488;-79
2023/07/22 12:11:04;;;;;;;10.23;7.33;;;;;;;;;;5030890;28;20465;-79
2023/07/22 12:13:36;;;;;;;13.23;8.07;;;;;;;;;;5032273;28;20526;-79
2023/07/22 12:16:04;;;;;;;12.33;9.43;;;;;;;;;;5032666;28;20472;-79
2023/07/22 12:18:41;;;;;;;69.43;29.30;;;;;;;;;;5027946;28;21195;-79
2023/07/22 12:21:08;;;;;;;28.03;13.77;;;;;;;;;;5026528;28;20469;-79
2023/07/22 12:23:37;;;;;;;44.23;23.33;;;;;;;;;;5033475;28;20461;-80
2023/07/22 12:26:05;;;;;;;14.77;11.50;;;;;;;;;;5021215;28;20477;-79
2023/07/22 12:28:31;;;;;;;178.40;52.53;;;;;;;;;;5031998;28;20496;-79
2023/07/22 12:30:57;;;;;;;18.10;12.30;;;;;;;;;;5031219;28;20472;-79
2023/07/22 12:33:24;;;;;;;17.50;13.33;;;;;;;;;;5028739;28;20499;-79
2023/07/22 12:35:51;;;;;;;80.37;36.40;;;;;;;;;;5032206;28;20856;-79
2023/07/22 12:38:17;;;;;;;77.43;24.37;;;;;;;;;;5021010;28;20472;-79
2023/07/22 12:40:43;;;;;;;15.80;12.73;;;;;;;;;;5023180;28;20472;-79
2023/07/22 12:43:11;;;;;;;16.87;12.43;;;;;;;;;;5030151;28;20472;-79
2023/07/22 12:45:38;;;;;;;537.03;111.53;;;;;;;;;;5035999;28;20468;-79
2023/07/22 12:48:05;;;;;;;164.77;33.67;;;;;;;;;;5046409;28;20480;-80
2023/07/22 12:50:32;;;;;;;27.80;17.73;;;;;;;;;;5051473;28;20455;-80
2023/07/22 12:52:58;;;;;;;18.67;15.17;;;;;;;;;;5052477;28;20965;-80
2023/07/22 12:55:24;;;;;;;25.03;16.23;;;;;;;;;;5042025;28;20467;-79
2023/07/22 12:57:51;;;;;;;47.37;25.17;;;;;;;;;;5058003;28;20479;-80
2023/07/22 13:00:18;;;;;;;23.13;16.40;;;;;;;;;;5056392;28;20474;-80
2023/07/22 13:02:45;;;;;;;20.27;15.33;;;;;;;;;;5056719;28;20548;-81
2023/07/22 13:05:11;;;;;;;121.67;36.83;;;;;;;;;;5053284;28;20461;-81
2023/07/22 13:07:37;;;;;;;25.20;17.00;;;;;;;;;;5050370;28;20571;-81
2023/07/22 13:10:10;;;;;;;25.70;16.67;;;;;;;;;;5051351;28;20901;-80
2023/07/22 13:12:37;;;;;;;23.77;17.93;;;;;;;;;;5049933;28;20472;-81
2023/07/22 13:15:03;;;;;;;20.13;16.00;;;;;;;;;;5056997;28;20447;-81
2023/07/22 13:17:31;;;;;;;21.87;16.87;;;;;;;;;;5050746;28;20485;-81
2023/07/22 13:19:59;;;;;;;19.03;14.03;;;;;;;;;;5044980;28;20793;-80
2023/07/22 13:22:25;;;;;;;19.73;14.83;;;;;;;;;;5049708;28;20479;-81
2023/07/22 13:24:52;;;;;;;18.57;14.20;;;;;;;;;;5054550;28;20451;-81
2023/07/22 13:27:19;;;;;;;23.70;16.60;;;;;;;;;;5051786;28;20471;-81
2023/07/22 13:29:46;;;;;;;21.40;14.63;;;;;;;;;;5051042;28;20487;-81
2023/07/22 13:32:12;;;;;;;19.50;15.20;;;;;;;;;;5034086;28;20989;-81
2023/07/22 13:34:40;;;;;;;22.67;16.17;;;;;;;;;;5035675;28;20456;-81
2023/07/22 13:37:06;;;;;;;24.53;17.00;;;;;;;;;;5035821;28;20472;-81
2023/07/22 13:39:33;;;;;;;21.63;15.47;;;;;;;;;;5028930;28;20436;-82
2023/07/22 13:41:59;;;;;;;20.40;15.30;;;;;;;;;;5035818;28;20450;-81
2023/07/22 13:44:26;;;;;;;15.63;13.80;;;;;;;;;;5029637;28;20854;-80
2023/07/22 13:46:52;;;;;;;26.90;17.40;;;;;;;;;;5034981;28;20479;-81
2023/07/22 13:49:18;;;;;;;19.40;15.23;;;;;;;;;;5035353;28;20488;-80
2023/07/22 13:51:46;;;;;;;18.20;13.73;;;;;;;;;;5028471;28;20472;-80
2023/07/22 13:54:12;;;;;;;22.17;16.50;;;;;;;;;;5035231;28;20472;-79
2023/07/22 13:56:39;;;;;;;20.67;15.20;;;;;;;;;;5037377;28;20469;-80
2023/07/22 13:59:06;;;;;;;21.17;14.90;;;;;;;;;;5027544;28;20572;-80
2023/07/22 14:01:33;;;;;;;22.70;14.57;;;;;;;;;;5030509;28;20886;-80
2023/07/22 14:03:59;;;;;;;18.67;14.97;;;;;;;;;;5034073;28;20959;-81
2023/07/22 14:06:26;;;;;;;22.83;14.37;;;;;;;;;;5031770;28;20480;-80
2023/07/22 14:08:53;;;;;;;23.37;16.13;;;;;;;;;;5032270;28;20463;-81
2023/07/22 14:11:20;;;;;;;23.30;17.23;;;;;;;;;;5034336;28;20468;-81
2023/07/22 14:13:46;;;;;;;20.10;15.50;;;;;;;;;;5036333;28;20464;-81
2023/07/22 14:16:13;;;;;;;20.67;15.03;;;;;;;;;;5035043;28;21033;-82
2023/07/22 14:18:39;;;;;;;16.00;14.03;;;;;;;;;;5035190;28;20484;-81
2023/07/22 14:21:05;;;;;;;20.70;14.53;;;;;;;;;;5035412;28;20478;-82
2023/07/22 14:23:32;;;;;;;16.03;13.60;;;;;;;;;;5035194;28;20969;-82
2023/07/22 14:26:00;;;;;;;17.90;14.40;;;;;;;;;;5028291;28;20472;-81
2023/07/22 14:28:26;;;;;;;19.03;15.23;;;;;;;;;;5035990;28;20480;-81